If you wish to contribute or participate in the discussions about articles you are invited to join SKYbrary as a registered user

 Actions

Logroño-Agoncillo Airport

From SKYbrary Wiki

LELO
Airport
ICAO: LELO – IATA: RJL
Summary
Name Logroño-Agoncillo Airport
Region Europe
Territory Spain ES.gif
Location
Serving Logroño-Agoncillo
Elevation 353.873 m
1,161 ft
1,161 ft353.873 m
Type small airport
Coordinates 42° 27' 15.12" N, 2° 19' 14.99" W
Runways
Designator Length Width Surface ROPS


METAR
Observation LELO 251400Z 31011KT 260V010 9999 BKN032 17/10 Q1023
Station Logrono / Agoncillo
Date/Time 25 May 2019 14:00:00
Wind direction 310°
Wind speed 11 kts
Lowest cloud amount broken clouds
Temperature 17°C
Dew point 10°C
Humidity 63%
QNH 1023 hPa
Weather condition n/a